Hovedside
METAR-TAF:

METAR-TAF

Lufthavner :

Haugesund lufthavn. Karmøy

Haugesund, Norge

breddegrad: 59-21N, lengdegrad: 005-13E, høyde over havet: 2 m

Gjeldene værobservasjon

Denne rapporten ble laget for 28 minutter siden, klokken 19:50 UTC
Vind 8 kt fra Sørøst
Temperatur 4°C
Luftfuktighet 93%
Trykk 1012 hPa
Sikt 10 km eller mer
Spredte skyer i en høyde av 2300 ft
Brutte skyer i en høyde av 3800 ft

METAR: ENHD 141950Z 13008KT 9999 SCT023 BKN038 04/03 Q1012

Tid: 21:18 (20:18 UTC)

Varsel

Denne rapporten ble laget for 3 timer og 18 minutter siden, klokken 17:00 UTC
Varsel gyldig fra 14. klokken 18 UTC til 14. klokken 21 UTC
Vind 7 kt fra Sør-sørøst
Sikt 10 km eller mer
Brutte skyer i en høyde av 3500 ft
Midlertidig
fra 14. klokken 18 UTC til 14. klokken 21 UTC
Brutte skyer i en høyde av 1400 ft
Spredte skyer i en høyde av 1800 ft, Bygeskyer.
regnbyger

TAF: ENHD 141700Z 1418/1421 15007KT 9999 BKN035 TEMPO 1418/1421 SHRA BKN014 SCT018CB

Værobservasjoner og værvarsel for over 4000 flyplasser (METAR- og TAF-rapporter).

Tilgjengelige stasjoner er representert av de røde og gule prikkene på kartet.

Hold musepekeren over prikken for å se navnet på stasjonen.

Klikk så for å se værobservasjoner og -varsler.

For å forandre kartet kan du klikke på den grønne knappen med svart kryss for å zoome inn, på den grønne knappen med strek for å zoome ut, eller på de grønne pilene for å se tilstøtende kart.


METAR-TAF: